Terminal Aerodrome Forecast
Issued by NWS

Home | Current Version | Previous Version | Text Only | Print | Product List | Glossary On
Versions: 1 2 3 4 5 6 7 8 9 10 11 12
010
FTUS44 KLZK 232320
TAFBPK
TAF
KBPK 232320Z 2400/2424 00000KT P6SM BKN200
      TEMPO 2410/2414 5SM BR
     FM241500 08004KT P6SM SCT045 BKN250=

USA.gov is the U.S. government's official web portal to all federal, state and local government web resources and services.